Woodward, Oklahoma
Current Conditions -  °F | °C
As of 11:15 PM on Friday 28 Nov 2014 (Local Time) from KWWR Reporting Station
Clear Clear  
Wind Chill: 55°   Ceiling: Unl
Heat Index: 55°   Visibility: 10mi
Dew Point: 30°   Wind: 15mph
Humidity: 38%   Direction: 200°SSW
Pressure: 29.75"   Gusts: NA
Location:  36.43°N, 99.4°W
Report Text: KWWR 290515Z AUTO 20013KT 10SM CLR 13/M01 A2975 RMK AO2
Loading
Personal Weather Stations






























Interactive Weather Map New forecast layout! Learn more

10-Day Weather Forecast

Advertisements
Track Severe Weather on mobile